createdAt,value
2022-09-05T00:01:54.817Z,3.97
2022-09-05T00:04:33.284Z,3.90
2022-09-05T00:07:10.649Z,4.03
2022-09-05T00:10:12.379Z,3.80
2022-09-05T00:12:39.986Z,4.07
2022-09-05T00:15:35.349Z,4.00
2022-09-05T00:21:17.746Z,4.30
2022-09-05T00:24:25.996Z,4.00
2022-09-05T00:25:02.324Z,4.10
2022-09-05T00:27:51.529Z,4.50
2022-09-05T00:31:06.551Z,4.27
2022-09-05T00:33:42.965Z,4.87
2022-09-05T00:36:41.257Z,4.77
2022-09-05T00:39:21.182Z,4.80
2022-09-05T00:41:51.028Z,4.80
2022-09-05T00:44:22.432Z,4.50
2022-09-05T00:47:31.938Z,4.80
2022-09-05T00:50:03.727Z,4.90
2022-09-05T00:52:42.950Z,4.67
2022-09-05T00:55:45.442Z,5.10
2022-09-05T00:58:49.211Z,5.30
2022-09-05T01:01:32.501Z,4.90
2022-09-05T01:04:11.652Z,4.80
2022-09-05T01:06:55.905Z,5.17
2022-09-05T01:09:28.804Z,4.83
2022-09-05T01:12:19.805Z,5.37
2022-09-05T01:15:01.516Z,5.30
2022-09-05T01:17:48.463Z,4.77
2022-09-05T01:20:19.640Z,5.17
2022-09-05T01:23:17.249Z,4.97
2022-09-05T01:25:54.889Z,5.07
2022-09-05T01:29:15.343Z,5.30
2022-09-05T01:31:44.363Z,4.93
2022-09-05T01:34:31.526Z,5.73
2022-09-05T01:37:06.191Z,5.10
2022-09-05T01:40:11.395Z,5.60
2022-09-05T01:43:03.147Z,4.70
2022-09-05T01:45:41.676Z,5.17
2022-09-05T01:48:21.522Z,5.00
2022-09-05T01:51:02.694Z,5.37
2022-09-05T01:53:58.248Z,5.70
2022-09-05T01:56:44.950Z,5.60
2022-09-05T01:59:27.767Z,5.60
2022-09-05T02:02:25.829Z,5.80
2022-09-05T02:04:58.314Z,5.80
2022-09-05T02:07:45.965Z,6.17
2022-09-05T02:10:21.166Z,5.77
2022-09-05T02:13:02.929Z,5.87
2022-09-05T02:15:59.290Z,5.77
2022-09-05T02:19:01.248Z,5.70
2022-09-05T02:21:33.650Z,5.37
2022-09-05T02:24:43.612Z,6.17
2022-09-05T02:28:04.453Z,6.10
2022-09-05T02:30:27.202Z,6.20
2022-09-05T02:33:29.120Z,6.40
2022-09-05T02:36:09.714Z,5.70
2022-09-05T02:42:43.496Z,5.90
2022-09-05T02:45:12.049Z,6.43
2022-09-05T02:45:20.600Z,6.23
2022-09-05T02:47:56.002Z,6.37
2022-09-05T02:57:23.295Z,6.60
2022-09-05T02:57:32.962Z,6.50
2022-09-05T02:57:37.804Z,6.23
2022-09-05T02:59:46.110Z,6.63
2022-09-05T03:02:25.266Z,6.53
2022-09-05T03:05:08.448Z,6.90
2022-09-05T03:07:53.484Z,7.30
2022-09-05T03:10:59.182Z,7.47
2022-09-05T03:13:54.413Z,7.97
2022-09-05T03:16:51.080Z,7.50
2022-09-05T03:19:46.121Z,7.03
2022-09-05T03:22:50.463Z,7.37
2022-09-05T03:25:19.557Z,7.30
2022-09-05T03:28:18.249Z,7.37
2022-09-05T03:31:20.279Z,7.27
2022-09-05T03:34:10.968Z,7.50
2022-09-05T03:37:14.974Z,7.90
2022-09-05T03:39:53.544Z,8.37
2022-09-05T03:42:29.151Z,8.07
2022-09-05T03:45:16.001Z,8.47
2022-09-05T03:48:06.322Z,9.20
2022-09-05T03:57:08.630Z,8.60
2022-09-05T03:57:26.846Z,9.33
2022-09-05T03:57:51.842Z,9.20
2022-09-05T04:00:31.680Z,9.37
2022-09-05T04:08:11.461Z,9.47
2022-09-05T04:08:16.943Z,9.77
2022-09-05T04:09:31.574Z,9.00
2022-09-05T04:12:18.286Z,9.67
2022-09-05T04:14:59.940Z,9.23
2022-09-05T04:17:52.667Z,9.70
2022-09-05T04:20:40.445Z,10.00
2022-09-05T04:23:24.998Z,10.23
2022-09-05T04:26:20.635Z,10.30
2022-09-05T04:28:58.063Z,9.37
2022-09-05T04:32:18.064Z,9.57
2022-09-05T04:35:02.489Z,11.10
2022-09-05T04:37:48.059Z,10.80
2022-09-05T04:40:36.826Z,10.80
2022-09-05T04:43:23.540Z,10.17
2022-09-05T04:45:54.294Z,9.80
2022-09-05T04:48:27.695Z,9.53
2022-09-05T04:51:04.758Z,10.27
2022-09-05T04:53:50.735Z,9.50
2022-09-05T04:56:26.589Z,10.70
2022-09-05T05:03:08.368Z,10.50
2022-09-05T05:06:16.898Z,10.87
2022-09-05T05:06:19.741Z,10.30
2022-09-05T05:08:15.693Z,11.03
2022-09-05T05:13:02.086Z,10.67
2022-09-05T05:18:07.036Z,11.07
2022-09-05T05:18:14.372Z,10.57
2022-09-05T05:19:34.165Z,10.27
2022-09-05T05:22:04.833Z,10.13
2022-09-05T05:24:36.248Z,10.90
2022-09-05T05:27:18.798Z,10.90
2022-09-05T05:29:54.074Z,10.30
2022-09-05T05:32:46.246Z,10.87
2022-09-05T05:35:15.670Z,10.00
2022-09-05T05:38:06.647Z,10.13
2022-09-05T05:40:51.212Z,10.37
2022-09-05T05:43:34.484Z,11.13
2022-09-05T05:46:01.770Z,10.57
2022-09-05T05:48:39.969Z,9.70
2022-09-05T05:51:34.702Z,10.13
2022-09-05T05:54:27.221Z,9.83
2022-09-05T05:57:27.363Z,9.90
2022-09-05T06:00:01.768Z,9.67
2022-09-05T06:03:25.257Z,9.47
2022-09-05T06:06:10.276Z,8.10
2022-09-05T06:12:46.349Z,7.50
2022-09-05T06:14:59.037Z,7.50
2022-09-05T06:15:26.127Z,6.90
2022-09-05T06:18:23.928Z,7.27
2022-09-05T06:22:09.540Z,7.53
2022-09-05T06:24:50.330Z,6.97
2022-09-05T06:27:28.452Z,7.53
2022-09-05T06:30:04.557Z,7.23
2022-09-05T06:32:58.396Z,6.87
2022-09-05T06:35:45.442Z,6.43
2022-09-05T06:38:30.874Z,6.80
2022-09-05T06:41:28.292Z,6.17
2022-09-05T06:44:25.535Z,6.77
2022-09-05T06:47:32.516Z,6.20
2022-09-05T06:50:23.862Z,6.27
2022-09-05T06:53:10.940Z,6.03
2022-09-05T06:55:59.597Z,6.23
2022-09-05T06:58:40.460Z,5.93
2022-09-05T07:01:09.302Z,6.17
2022-09-05T07:03:57.737Z,6.53
2022-09-05T07:07:01.521Z,6.80
2022-09-05T07:09:54.794Z,6.28
2022-09-05T07:12:32.164Z,6.15
2022-09-05T07:15:32.201Z,5.90
2022-09-05T07:18:35.186Z,6.18
2022-09-05T07:21:16.691Z,6.45
2022-09-05T07:24:08.866Z,5.82
2022-09-05T07:26:53.935Z,5.80
2022-09-05T07:29:30.374Z,6.78
2022-09-05T07:31:59.353Z,6.43
2022-09-05T07:34:34.760Z,6.53
2022-09-05T07:37:14.747Z,6.40
2022-09-05T07:39:55.941Z,6.10
2022-09-05T07:43:08.317Z,7.13
2022-09-05T07:45:55.312Z,5.95
2022-09-05T07:48:34.972Z,6.00
2022-09-05T07:56:49.777Z,6.10
2022-09-05T07:56:50.340Z,6.35
2022-09-05T07:57:26.918Z,6.90
2022-09-05T07:59:40.067Z,6.73
2022-09-05T08:02:10.687Z,6.47
2022-09-05T08:04:40.414Z,6.57
2022-09-05T08:07:47.734Z,6.80
2022-09-05T08:10:09.391Z,6.57
2022-09-05T08:13:23.500Z,6.70
2022-09-05T08:16:11.091Z,6.37
2022-09-05T08:18:54.095Z,6.57
2022-09-05T08:21:37.888Z,6.40
2022-09-05T08:24:15.041Z,6.27
2022-09-05T08:26:57.135Z,6.33
2022-09-05T08:29:30.324Z,5.90
2022-09-05T08:32:05.420Z,6.30
2022-09-05T08:34:45.793Z,6.10
2022-09-05T08:37:21.229Z,5.93
2022-09-05T08:39:57.554Z,7.00
2022-09-05T08:46:38.059Z,6.18
2022-09-05T08:46:46.068Z,6.57
2022-09-05T08:49:15.589Z,5.75
2022-09-05T08:51:58.654Z,6.40
2022-09-05T08:54:41.690Z,6.25
2022-09-05T08:57:45.052Z,5.88
2022-09-05T09:00:20.420Z,5.85
2022-09-05T09:03:04.075Z,6.60
2022-09-05T09:06:12.772Z,5.50
2022-09-05T09:08:54.495Z,6.43
2022-09-05T09:11:56.436Z,5.72
2022-09-05T09:14:37.875Z,5.10
2022-09-05T09:17:09.854Z,5.63
2022-09-05T09:19:58.664Z,5.97
2022-09-05T09:22:59.521Z,5.38
2022-09-05T09:25:34.065Z,6.45
2022-09-05T09:28:48.309Z,6.15
2022-09-05T09:31:17.718Z,6.55
2022-09-05T09:33:56.284Z,6.32
2022-09-05T09:36:50.248Z,6.90
2022-09-05T09:39:50.193Z,5.70
2022-09-05T09:42:50.752Z,5.65
2022-09-05T09:45:28.719Z,6.65
2022-09-05T09:48:27.987Z,6.03
2022-09-05T09:51:00.839Z,6.70
2022-09-05T09:53:36.916Z,6.43
2022-09-05T09:56:24.606Z,6.53
2022-09-05T09:58:57.740Z,6.57
2022-09-05T10:01:43.247Z,5.45
2022-09-05T10:07:35.464Z,5.60
2022-09-05T10:10:53.336Z,5.63
2022-09-05T10:11:05.394Z,5.95
2022-09-05T10:13:32.397Z,5.07
2022-09-05T10:16:17.200Z,5.40
2022-09-05T10:18:56.267Z,4.70
2022-09-05T10:21:37.545Z,4.72
2022-09-05T10:24:26.043Z,4.10
2022-09-05T10:27:10.701Z,4.30
2022-09-05T10:29:55.591Z,4.70
2022-09-05T10:35:10.679Z,4.47
2022-09-05T10:35:38.607Z,3.75
2022-09-05T10:38:16.447Z,4.75
2022-09-05T10:41:21.568Z,5.30
2022-09-05T10:43:35.628Z,3.80
2022-09-05T10:46:50.300Z,3.70
2022-09-05T10:49:24.486Z,3.95
2022-09-05T10:52:18.059Z,4.13
2022-09-05T10:55:15.005Z,3.65
2022-09-05T10:57:51.350Z,3.38
2022-09-05T11:02:21.751Z,3.53
2022-09-05T11:03:40.759Z,3.70
2022-09-05T11:06:16.557Z,3.40
2022-09-05T11:09:16.921Z,3.03
2022-09-05T11:11:46.735Z,3.00
2022-09-05T11:14:49.327Z,3.38
2022-09-05T11:17:35.765Z,2.88
2022-09-05T11:20:35.027Z,2.92
2022-09-05T11:23:20.213Z,3.17
2022-09-05T11:25:51.782Z,3.40
2022-09-05T11:28:28.905Z,3.00
2022-09-05T11:30:58.383Z,3.20
2022-09-05T11:39:51.149Z,3.20
2022-09-05T11:39:53.445Z,3.30
2022-09-05T11:40:29.975Z,3.08
2022-09-05T11:43:09.741Z,3.33
2022-09-05T11:46:05.715Z,3.08
2022-09-05T11:48:53.227Z,3.60
2022-09-05T11:51:33.952Z,2.83
2022-09-05T11:54:09.389Z,2.53
2022-09-05T11:56:45.996Z,3.03
2022-09-05T11:59:15.470Z,3.08
2022-09-05T12:02:28.176Z,2.80
2022-09-05T12:05:47.619Z,3.03
2022-09-05T12:11:19.891Z,2.65
2022-09-05T12:14:20.893Z,2.75
2022-09-05T12:16:59.069Z,2.97
2022-09-05T12:19:43.033Z,2.57
2022-09-05T12:22:29.403Z,2.80
2022-09-05T12:26:05.371Z,3.03
2022-09-05T12:28:33.135Z,3.20
2022-09-05T12:32:34.381Z,2.80
2022-09-05T12:36:10.818Z,2.85
2022-09-05T12:38:57.023Z,2.78
2022-09-05T12:41:35.630Z,2.60
2022-09-05T12:42:10.154Z,2.67
2022-09-05T12:44:04.625Z,2.20
2022-09-05T12:46:24.710Z,2.30
2022-09-05T12:49:07.242Z,2.20
2022-09-05T12:51:46.493Z,2.30
2022-09-05T12:54:33.429Z,2.43
2022-09-05T13:00:42.536Z,2.40
2022-09-05T13:03:01.711Z,2.03
2022-09-05T13:03:14.367Z,2.20
2022-09-05T13:05:49.081Z,2.33
2022-09-05T13:08:16.543Z,2.23
2022-09-05T13:14:05.769Z,2.40
2022-09-05T13:15:07.696Z,2.50
2022-09-05T13:16:30.531Z,2.47
2022-09-05T13:19:05.598Z,2.17
2022-09-05T13:21:32.296Z,2.30
2022-09-05T13:24:23.512Z,1.95
2022-09-05T13:27:02.246Z,2.25
2022-09-05T13:30:23.820Z,2.10
2022-09-05T13:37:56.662Z,2.00
2022-09-05T13:38:02.865Z,1.80
2022-09-05T13:38:47.726Z,1.90
2022-09-05T13:41:27.581Z,2.00
2022-09-05T13:44:00.021Z,2.00
2022-09-05T13:46:58.618Z,2.22
2022-09-05T13:49:55.532Z,2.13
2022-09-05T13:52:35.387Z,2.10
2022-09-05T13:55:17.100Z,2.10
2022-09-05T13:57:54.480Z,2.03
2022-09-05T14:00:31.605Z,1.80
2022-09-05T14:03:39.137Z,1.93
2022-09-05T14:06:46.146Z,2.13
2022-09-05T14:12:30.838Z,1.80
2022-09-05T14:15:25.180Z,1.93
2022-09-05T14:18:01.813Z,2.00
2022-09-05T14:20:56.915Z,1.70
2022-09-05T14:23:28.358Z,1.80
2022-09-05T14:26:03.405Z,1.77
2022-09-05T14:28:38.706Z,1.50
2022-09-05T14:37:37.220Z,1.67
2022-09-05T14:37:54.948Z,1.92
2022-09-05T14:38:09.684Z,2.03
2022-09-05T14:41:18.363Z,1.70
2022-09-05T14:44:21.642Z,1.93
2022-09-05T14:47:32.307Z,1.90
2022-09-05T14:50:12.469Z,1.83
2022-09-05T14:57:23.814Z,1.70
2022-09-05T15:02:44.574Z,1.63
2022-09-05T15:02:56.555Z,1.55
2022-09-05T15:04:58.854Z,1.60
2022-09-05T15:07:33.988Z,1.67
2022-09-05T15:12:15.441Z,1.67
2022-09-05T15:13:12.494Z,2.03
2022-09-05T15:16:00.673Z,1.70
2022-09-05T15:18:39.748Z,1.83
2022-09-05T15:21:33.824Z,1.95
2022-09-05T15:24:25.949Z,1.90
2022-09-05T15:26:59.134Z,2.20
2022-09-05T15:29:28.238Z,1.63
2022-09-05T15:32:11.928Z,1.80
2022-09-05T15:34:39.167Z,1.80
2022-09-05T15:37:34.216Z,1.50
2022-09-05T15:40:23.950Z,1.80
2022-09-05T15:42:57.178Z,1.70
2022-09-05T15:45:30.937Z,1.88
2022-09-05T15:48:06.237Z,1.80
2022-09-05T15:50:43.002Z,1.73
2022-09-05T15:53:34.743Z,1.73
2022-09-05T15:56:21.035Z,2.13
2022-09-05T15:58:55.798Z,1.75
2022-09-05T16:01:35.897Z,1.90
2022-09-05T16:08:12.180Z,2.08
2022-09-05T16:10:43.604Z,1.73
2022-09-05T16:10:59.224Z,1.83
2022-09-05T16:12:45.970Z,2.00
2022-09-05T16:16:46.100Z,1.90
2022-09-05T16:23:13.668Z,1.90
2022-09-05T16:23:32.898Z,2.28
2022-09-05T16:24:07.207Z,1.98
2022-09-05T16:26:43.984Z,1.83
2022-09-05T16:29:27.030Z,1.77
2022-09-05T16:31:59.375Z,1.90
2022-09-05T16:35:04.222Z,1.90
2022-09-05T16:37:36.585Z,2.27
2022-09-05T16:40:12.211Z,1.80
2022-09-05T16:42:47.831Z,1.87
2022-09-05T16:45:32.873Z,2.30
2022-09-05T16:48:09.947Z,2.20
2022-09-05T16:50:50.065Z,1.90
2022-09-05T16:53:58.468Z,2.17
2022-09-05T16:56:34.781Z,2.03
2022-09-05T16:59:07.878Z,1.97
2022-09-05T17:02:07.357Z,1.90
2022-09-05T17:05:05.166Z,2.10
2022-09-05T17:07:50.255Z,1.83
2022-09-05T17:10:19.340Z,1.83
2022-09-05T17:12:50.361Z,1.73
2022-09-05T17:15:21.997Z,2.27
2022-09-05T17:18:21.789Z,1.90
2022-09-05T17:20:48.509Z,1.90
2022-09-05T17:28:16.343Z,2.07
2022-09-05T17:29:33.610Z,2.00
2022-09-05T17:29:49.003Z,2.60
2022-09-05T17:31:57.928Z,2.10
2022-09-05T17:34:43.205Z,2.30
2022-09-05T17:37:18.207Z,2.27
2022-09-05T17:40:04.611Z,2.80
2022-09-05T17:42:36.653Z,2.87
2022-09-05T17:45:34.295Z,2.77
2022-09-05T17:48:00.777Z,2.73
2022-09-05T17:50:28.035Z,3.03
2022-09-05T17:52:59.570Z,3.50
2022-09-05T17:55:35.010Z,3.23
2022-09-05T17:58:24.402Z,3.00
2022-09-05T18:00:50.853Z,3.10
2022-09-05T18:03:35.991Z,3.63
2022-09-05T18:06:06.801Z,3.63
2022-09-05T18:08:45.277Z,3.93
2022-09-05T18:11:44.586Z,3.90
2022-09-05T18:14:14.937Z,3.90
2022-09-05T18:17:37.419Z,3.70
2022-09-05T18:20:06.539Z,3.50
2022-09-05T18:22:38.791Z,3.60
2022-09-05T18:25:28.808Z,4.03
2022-09-05T18:28:19.064Z,3.77
2022-09-05T18:30:45.765Z,3.57
2022-09-05T18:33:53.749Z,3.87
2022-09-05T18:36:25.915Z,4.00
2022-09-05T18:39:29.798Z,3.83
2022-09-05T18:42:33.165Z,3.73
2022-09-05T18:44:59.685Z,4.00
2022-09-05T18:47:33.565Z,3.80
2022-09-05T18:50:25.068Z,4.00
2022-09-05T18:52:51.756Z,4.03
2022-09-05T18:56:12.773Z,3.90
2022-09-05T18:58:30.683Z,4.43
2022-09-05T19:01:33.770Z,4.13
2022-09-05T19:04:05.203Z,4.30
2022-09-05T19:06:39.957Z,5.17
2022-09-05T19:09:21.139Z,4.27
2022-09-05T19:12:33.696Z,4.50
2022-09-05T19:15:08.340Z,4.87
2022-09-05T19:17:45.432Z,4.57
2022-09-05T19:20:33.562Z,4.50
2022-09-05T19:23:11.003Z,4.20
2022-09-05T19:25:42.237Z,4.73
2022-09-05T19:36:45.769Z,4.60
2022-09-05T19:36:53.518Z,4.90
2022-09-05T19:36:58.910Z,5.60
2022-09-05T19:41:49.491Z,5.60
2022-09-05T19:47:44.909Z,5.43
2022-09-05T19:47:45.335Z,5.00
2022-09-05T19:48:26.223Z,5.37
2022-09-05T19:50:57.702Z,5.10
2022-09-05T19:53:24.723Z,5.33
2022-09-05T19:55:51.848Z,5.37
2022-09-05T19:58:23.083Z,5.40
2022-09-05T20:01:02.769Z,5.37
2022-09-05T20:03:38.261Z,5.53
2022-09-05T20:06:24.675Z,5.67
2022-09-05T20:09:17.653Z,5.33
2022-09-05T20:11:54.668Z,5.43
2022-09-05T20:14:30.082Z,5.00
2022-09-05T20:17:01.317Z,5.13
2022-09-05T20:19:34.479Z,5.53
2022-09-05T20:22:46.897Z,5.20
2022-09-05T20:24:56.562Z,5.50
2022-09-05T20:27:28.044Z,5.70
2022-09-05T20:30:04.023Z,4.67
2022-09-05T20:32:41.417Z,5.10
2022-09-05T20:37:51.612Z,4.93
2022-09-05T20:43:25.124Z,5.17
2022-09-05T20:43:29.713Z,4.70
2022-09-05T20:43:57.021Z,4.70
2022-09-05T20:52:08.852Z,4.70
2022-09-05T20:54:09.847Z,5.17
2022-09-05T20:54:19.416Z,4.70
2022-09-05T20:55:38.569Z,4.87
2022-09-05T20:58:20.057Z,4.53
2022-09-05T21:01:20.990Z,4.93
2022-09-05T21:03:45.429Z,4.50
2022-09-05T21:06:37.392Z,4.67
2022-09-05T21:09:25.584Z,4.37
2022-09-05T21:11:55.282Z,4.60
2022-09-05T21:14:24.084Z,5.13
2022-09-05T21:16:59.992Z,4.47
2022-09-05T21:19:35.632Z,4.67
2022-09-05T21:22:07.885Z,4.50
2022-09-05T21:24:34.924Z,4.40
2022-09-05T21:27:21.944Z,4.30
2022-09-05T21:29:53.001Z,4.40
2022-09-05T21:32:31.871Z,4.57
2022-09-05T21:35:17.412Z,4.60
2022-09-05T21:37:55.147Z,4.85
2022-09-05T21:40:22.110Z,5.00
2022-09-05T21:47:03.530Z,4.13
2022-09-05T21:47:47.284Z,4.13
2022-09-05T21:48:22.819Z,4.90
2022-09-05T21:50:52.699Z,5.33
2022-09-05T21:58:43.391Z,4.53
2022-09-05T21:59:33.444Z,4.57
2022-09-05T21:59:36.600Z,4.60
2022-09-05T22:02:04.034Z,4.43
2022-09-05T22:04:30.573Z,4.20
2022-09-05T22:07:03.238Z,5.33
2022-09-05T22:09:29.742Z,5.30
2022-09-05T22:11:56.178Z,4.83
2022-09-05T22:14:24.749Z,5.10
2022-09-05T22:16:55.870Z,4.60
2022-09-05T22:19:24.375Z,4.70
2022-09-05T22:21:53.468Z,4.60
2022-09-05T22:24:21.666Z,4.60
2022-09-05T22:27:10.975Z,5.47
2022-09-05T22:29:35.462Z,4.70
2022-09-05T22:32:02.053Z,4.83
2022-09-05T22:34:28.425Z,6.23
2022-09-05T22:36:54.807Z,5.03
2022-09-05T22:39:37.274Z,5.03
2022-09-05T22:42:09.935Z,5.27
2022-09-05T22:44:39.088Z,4.70
2022-09-05T22:47:07.503Z,4.50
2022-09-05T22:49:33.937Z,5.00
2022-09-05T22:52:00.333Z,5.80
2022-09-05T22:54:26.720Z,5.93
2022-09-05T22:56:53.105Z,5.50
2022-09-05T22:59:19.511Z,5.50
2022-09-05T23:01:45.964Z,4.93
2022-09-05T23:04:12.450Z,5.03
2022-09-05T23:06:38.896Z,5.47
2022-09-05T23:09:05.280Z,5.60
2022-09-05T23:11:31.696Z,6.27
2022-09-05T23:13:58.112Z,5.30
2022-09-05T23:16:24.509Z,4.97
2022-09-05T23:18:50.949Z,5.77
2022-09-05T23:21:17.356Z,5.33
2022-09-05T23:23:43.744Z,5.40
2022-09-05T23:26:11.952Z,5.60
2022-09-05T23:28:42.894Z,5.20
2022-09-05T23:31:10.828Z,4.70
2022-09-05T23:33:37.317Z,5.30
2022-09-05T23:36:06.468Z,5.27
2022-09-05T23:38:33.532Z,5.13
2022-09-05T23:41:10.238Z,4.97
2022-09-05T23:43:36.644Z,5.10
2022-09-05T23:46:03.687Z,4.87
2022-09-05T23:48:30.232Z,4.90
2022-09-05T23:50:56.796Z,5.37
2022-09-05T23:53:23.728Z,4.97
2022-09-05T23:55:50.219Z,5.10
2022-09-05T23:58:17.036Z,5.43
